Terminal Aerodrome Forecast
Issued by NWS

Current Version | Previous Version | Text Only | Print | Product List | Glossary On
Versions: 1 2 3 4 5 6 7 8 9 10 11 12 13 14 15 16
000
FTUS45 KABQ 301014 AAA
TAFLVS
TAF AMD
KLVS 301014Z 3010/3106 17005KT P6SM VCSH OVC060
     FM301700 17010KT P6SM SCT035 BKN060
     FM301930 19011KT P6SM VCTS SCT035 BKN060CB
     FM310200 04007KT P6SM -SHRA OVC060=

USA.gov is the U.S. government's official web portal to all federal, state and local government web resources and services.